Melissa RD121's Hourly Summary for Friday, May 11, 2018
Hour Temp
(f)
RH
(%)
Solar Rad.
(MJ/m2)
Rainfall
(in)
Wind
(mph)
5/11/2018 12:00 AM 72 64 0 0 5.35
5/11/2018 1:00 AM 72 67 0 0 8.92
5/11/2018 2:00 AM 71 70 0 0 10.93
5/11/2018 3:00 AM 70 73 0 0 10.76
5/11/2018 4:00 AM 69 76 0 0 9.4
5/11/2018 5:00 AM 68 81 0 0 7.46
5/11/2018 6:00 AM 68 84 0.03 0 9.94
5/11/2018 7:00 AM 69 82 0.29 0 10.12
5/11/2018 8:00 AM 70 79 0.65 0 9.85
5/11/2018 9:00 AM 72 70 1.41 0 12.17
5/11/2018 10:00 AM 75 63 2.17 0 13
5/11/2018 11:00 AM 77 56 2.3 0 13.15
5/11/2018 12:00 PM 79 53 2.5 0 12.15
5/11/2018 1:00 PM 82 48 2.75 0 10.78
5/11/2018 2:00 PM 83 47 2.96 0 10.18
5/11/2018 3:00 PM 84 45 2.76 0 10.78
5/11/2018 4:00 PM 84 45 1.3 0 10.31
5/11/2018 5:00 PM 84 44 1.64 0 8.76
5/11/2018 6:00 PM 83 45 0.91 0 9.54
5/11/2018 7:00 PM 81 49 0.3 0 6.34
5/11/2018 8:00 PM 78 55 0.01 0 4.14
5/11/2018 9:00 PM 76 58 0 0 4.19
5/11/2018 10:00 PM 75 63 0 0 3.91
5/11/2018 11:00 PM 74 64 0 0 4.82
Data Summary 75 61 21.98 0.00 9.04